Time;durP1;ratioP1;P1;durP2;ratioP2;P2;SDS_P1;SDS_P2;PMS_P1;PMS_P2;Temp;Humidity;BMP_temperature;BMP_pressure;BME280_temperature;BME280_humidity;BME280_pressure;Samples;Min_cycle;Max_cycle;Signal;HPM_P1;HPM_P2
2022/07/30 00:00:31;;;;;;;;;;;;;;;28.85;36.46;94463.44;5011226;28;8740;-62
2022/07/30 00:02:57;;;;;;;;;;;;;;;28.86;36.90;94464.19;5029926;28;7068;-62
2022/07/30 00:05:23;;;;;;;;;;;;;;;28.85;36.41;94457.16;5009507;28;7028;-62
2022/07/30 00:07:49;;;;;;;;;;;;;;;28.84;36.77;94459.19;5008382;28;7260;-62
2022/07/30 00:10:19;;;;;;;;;;;;;;;28.84;36.94;94461.22;5006983;28;7219;-62
2022/07/30 00:12:45;;;;;;;;;;;;;;;28.85;36.88;94463.44;5007823;28;7324;-62
2022/07/30 00:15:12;;;;;;;;;;;;;;;28.85;36.57;94462.69;5009506;28;7221;-62
2022/07/30 00:17:40;;;;;;;;;;;;;;;28.85;36.26;94466.22;5007150;28;9087;-62
2022/07/30 00:20:08;;;;;;;;;;;;;;;28.84;36.33;94458.47;5007255;28;7425;-62
2022/07/30 00:22:34;;;;;;;;;;;;;;;28.84;36.74;94456.41;5008893;28;7050;-62
2022/07/30 00:25:08;;;;;;;;;;;;;;;28.84;36.58;94464.72;5007500;28;7295;-62
2022/07/30 00:28:12;;;;;;;;;;;;;;;28.83;36.63;94454.94;4994285;28;8888;-62
2022/07/30 00:30:39;;;;;;;;;;;;;;;28.84;36.39;94456.41;4970541;28;8481;-62
2022/07/30 00:33:14;;;;;;;;;;;;;;;28.82;36.63;94456.19;4970342;28;7134;-62
2022/07/30 00:35:40;;;;;;;;;;;;;;;28.84;36.18;94458.47;4956973;28;7206;-62
2022/07/30 00:38:08;;;;;;;;;;;;;;;28.83;36.37;94460.47;4949928;28;9091;-62
2022/07/30 00:40:36;;;;;;;;;;;;;;;28.84;36.80;94464.72;4956188;28;7234;-62
2022/07/30 00:43:20;;;;;;;;;;;;;;;28.82;36.48;94458.97;4969618;28;7260;-62
2022/07/30 00:45:59;;;;;;;;;;;;;;;28.83;36.25;94462.50;4949267;28;7236;-62
2022/07/30 00:48:30;;;;;;;;;;;;;;;28.82;35.99;94463.75;4953810;28;7003;-62
2022/07/30 00:51:07;;;;;;;;;;;;;;;28.82;36.97;94458.22;4970462;28;7284;-62
2022/07/30 00:53:33;;;;;;;;;;;;;;;28.82;36.42;94464.50;4971927;28;7080;-62
2022/07/30 00:56:05;;;;;;;;;;;;;;;28.81;36.50;94463.03;4946066;28;8025;-62
2022/07/30 00:58:41;;;;;;;;;;;;;;;28.82;36.38;94464.50;4967565;28;7050;-62
2022/07/30 01:01:07;;;;;;;;;;;;;;;28.80;36.52;94467.06;4947450;28;7265;-62
2022/07/30 01:03:33;;;;;;;;;;;;;;;28.81;36.30;94474.09;4973096;28;8444;-62
2022/07/30 01:05:59;;;;;;;;;;;;;;;28.82;36.65;94477.59;5011100;28;7561;-62
2022/07/30 01:08:35;;;;;;;;;;;;;;;28.81;36.12;94476.88;4992852;28;7286;-62
2022/07/30 01:11:03;;;;;;;;;;;;;;;28.81;36.67;94476.88;4989056;28;9368;-62
2022/07/30 01:13:37;;;;;;;;;;;;;;;28.80;36.56;94474.59;4990908;28;8824;-62
2022/07/30 01:16:12;;;;;;;;;;;;;;;28.79;36.43;94470.38;5013083;28;7010;-62
2022/07/30 01:21:38;;;;;;;;;;;;;;;28.80;36.86;94469.81;5013034;28;7185;-62
2022/07/30 01:24:37;;;;;;;;;;;;;;;28.79;36.96;94471.13;5028640;28;7268;-62
2022/07/30 01:27:13;;;;;;;;;;;;;;;28.80;36.28;94469.81;5008915;28;9090;-62
2022/07/30 01:30:07;;;;;;;;;;;;;;;28.80;36.41;94474.59;5008687;28;7639;-62
2022/07/30 01:32:46;;;;;;;;;;;;;;;28.79;36.51;94476.66;5011814;28;7166;-62
2022/07/30 01:35:19;;;;;;;;;;;;;;;28.79;36.92;94471.13;5009284;28;9325;-62
2022/07/30 01:37:55;;;;;;;;;;;;;;;28.78;36.43;94468.84;5011973;28;7248;-62
2022/07/30 01:40:32;;;;;;;;;;;;;;;28.79;36.73;94468.34;5010799;28;9447;-62
2022/07/30 01:43:29;;;;;;;;;;;;;;;28.78;36.61;94464.06;5012467;28;9547;-62
2022/07/30 01:46:09;;;;;;;;;;;;;;;28.78;36.58;94468.84;4951205;28;7197;-62
2022/07/30 01:48:48;;;;;;;;;;;;;;;28.77;36.46;94468.13;4950369;28;7007;-62
2022/07/30 01:51:18;;;;;;;;;;;;;;;28.76;36.60;94463.88;4950760;28;7261;-62
2022/07/30 01:53:52;;;;;;;;;;;;;;;28.76;36.63;94472.16;4950150;28;9169;-62
2022/07/30 01:56:23;;;;;;;;;;;;;;;28.76;36.54;94472.16;4951183;28;7266;-62
2022/07/30 01:58:55;;;;;;;;;;;;;;;28.75;36.86;94469.94;4960047;28;7863;-62
2022/07/30 02:01:25;;;;;;;;;;;;;;;28.72;36.72;94468.97;4945761;28;8782;-62
2022/07/30 02:03:52;;;;;;;;;;;;;;;28.74;36.74;94468.44;4945307;28;7263;-62
2022/07/30 02:06:31;;;;;;;;;;;;;;;28.77;36.53;94468.13;4928705;29;7947;-62
2022/07/30 02:09:06;;;;;;;;;;;;;;;28.80;36.97;94472.59;4960251;28;7230;-62
2022/07/30 02:15:17;;;;;;;;;;;;;;;28.82;36.64;94467.28;4950171;28;9261;-62
2022/07/30 02:18:09;;;;;;;;;;;;;;;28.81;36.55;94465.03;4911405;29;7012;-62
2022/07/30 02:20:36;;;;;;;;;;;;;;;28.82;36.57;94461.72;4908818;29;7037;-62
2022/07/30 02:23:11;;;;;;;;;;;;;;;28.82;36.74;94461.72;4940687;28;9380;-62
2022/07/30 02:25:50;;;;;;;;;;;;;;;28.84;36.32;94466.75;4948696;28;7019;-62
2022/07/30 02:28:21;;;;;;;;;;;;;;;28.83;36.67;94459.72;4948000;28;8941;-62
2022/07/30 02:31:02;;;;;;;;;;;;;;;28.82;36.41;94453.44;4948987;28;9506;-62
2022/07/30 02:33:38;;;;;;;;;;;;;;;28.81;36.56;94451.94;4949855;28;7608;-62
2022/07/30 02:36:06;;;;;;;;;;;;;;;28.80;36.41;94447.69;4932290;28;7069;-62
2022/07/30 02:38:35;;;;;;;;;;;;;;;28.81;36.40;94448.44;4948782;28;7075;-62
2022/07/30 02:41:08;;;;;;;;;;;;;;;28.82;36.87;94447.13;4948487;28;7285;-62
2022/07/30 02:43:38;;;;;;;;;;;;;;;28.81;36.38;94440.13;4948120;28;7289;-62
2022/07/30 02:46:06;;;;;;;;;;;;;;;28.83;36.36;94446.63;4949489;28;6986;-62
2022/07/30 02:48:38;;;;;;;;;;;;;;;28.82;36.49;94434.06;4947616;28;7225;-63
2022/07/30 02:51:08;;;;;;;;;;;;;;;28.82;36.41;94445.13;4948633;28;7043;-62
2022/07/30 02:53:39;;;;;;;;;;;;;;;28.83;36.32;94449.41;4949165;28;7255;-62
2022/07/30 02:56:09;;;;;;;;;;;;;;;28.83;36.12;94449.41;5008759;28;8885;-62
2022/07/30 02:58:40;;;;;;;;;;;;;;;28.84;36.32;94453.63;4991550;28;7039;-62
2022/07/30 03:01:08;;;;;;;;;;;;;;;28.83;36.21;94446.63;4991736;28;8856;-63
2022/07/30 03:03:36;;;;;;;;;;;;;;;28.82;36.22;94450.66;4990638;28;7006;-62
2022/07/30 03:06:08;;;;;;;;;;;;;;;28.82;36.14;94447.91;5009684;28;7208;-62
2022/07/30 03:08:35;;;;;;;;;;;;;;;28.81;36.25;94451.94;5007233;28;7164;-62
2022/07/30 03:11:03;;;;;;;;;;;;;;;28.81;36.59;94453.97;5009173;28;7412;-62
2022/07/30 03:13:30;;;;;;;;;;;;;;;28.80;36.01;94455.97;5007143;28;7119;-62
2022/07/30 03:15:59;;;;;;;;;;;;;;;28.82;36.07;94458.22;4991749;28;7185;-62
2022/07/30 03:18:33;;;;;;;;;;;;;;;28.82;35.98;94463.75;5024745;28;7270;-63
2022/07/30 03:21:01;;;;;;;;;;;;;;;28.83;36.21;94466.00;5009812;28;7197;-62
2022/07/30 03:23:36;;;;;;;;;;;;;;;28.80;36.25;94467.06;5008765;28;7522;-62
2022/07/30 03:26:12;;;;;;;;;;;;;;;28.81;36.44;94468.56;4993571;28;7169;-62
2022/07/30 03:28:42;;;;;;;;;;;;;;;28.81;35.95;94471.34;5013633;28;6987;-62
2022/07/30 03:31:15;;;;;;;;;;;;;;;28.79;36.43;94473.88;5029757;28;9342;-62
2022/07/30 03:33:42;;;;;;;;;;;;;;;28.80;36.14;94480.91;5013973;28;9140;-62
2022/07/30 03:36:12;;;;;;;;;;;;;;;28.79;36.16;94479.44;5013126;28;8787;-62
2022/07/30 03:38:45;;;;;;;;;;;;;;;28.78;36.00;94480.69;5013370;28;6994;-62
2022/07/30 03:41:16;;;;;;;;;;;;;;;28.79;35.98;94476.66;5014526;28;7234;-62
2022/07/30 03:43:49;;;;;;;;;;;;;;;28.80;36.12;94478.13;4996597;28;7026;-62
2022/07/30 03:46:22;;;;;;;;;;;;;;;28.80;35.85;94480.16;5014688;28;8799;-62
2022/07/30 03:48:59;;;;;;;;;;;;;;;28.77;35.83;94484.00;5013917;28;7005;-62
2022/07/30 03:51:31;;;;;;;;;;;;;;;28.79;35.82;94490.50;5028343;28;7263;-62
2022/07/30 03:54:31;;;;;;;;;;;;;;;28.78;36.05;94494.53;5011411;28;7252;-62
2022/07/30 03:57:04;;;;;;;;;;;;;;;28.78;35.83;94485.47;4953026;28;9217;-62
2022/07/30 03:59:30;;;;;;;;;;;;;;;28.78;36.00;94493.78;4954732;28;9067;-62
2022/07/30 04:02:04;;;;;;;;;;;;;;;28.76;36.30;94491.53;4970529;28;7522;-62
2022/07/30 04:04:30;;;;;;;;;;;;;;;28.72;36.84;94502.19;4962771;28;9549;-62
2022/07/30 04:06:57;;;;;;;;;;;;;;;28.69;36.05;94494.19;4955997;28;9412;-62
2022/07/30 04:09:29;;;;;;;;;;;;;;;28.68;36.08;94498.25;4963991;28;9618;-62
2022/07/30 04:12:12;;;;;;;;;;;;;;;28.66;36.63;94498.03;4970842;28;9150;-62
2022/07/30 04:15:10;;;;;;;;;;;;;;;28.67;36.21;94499.50;4971311;28;9034;-62
2022/07/30 04:17:52;;;;;;;;;;;;;;;28.64;36.47;94498.56;4953125;28;7270;-62
2022/07/30 04:20:35;;;;;;;;;;;;;;;28.64;36.05;94506.09;4949273;28;9226;-62
2022/07/30 04:23:03;;;;;;;;;;;;;;;28.64;36.15;94504.09;4969227;28;7211;-63
2022/07/30 04:25:30;;;;;;;;;;;;;;;28.63;35.77;94504.59;4967390;28;9060;-62
2022/07/30 04:27:59;;;;;;;;;;;;;;;28.62;36.37;94517.72;4970944;28;7246;-62
2022/07/30 04:31:11;;;;;;;;;;;;;;;28.62;36.51;94511.44;4970933;28;6984;-62
2022/07/30 04:34:06;;;;;;;;;;;;;;;28.62;36.39;94512.19;4925388;28;9010;-62
2022/07/30 04:36:46;;;;;;;;;;;;;;;28.59;36.27;94507.69;4898383;29;7404;-62
2022/07/30 04:39:48;;;;;;;;;;;;;;;28.60;36.41;94513.97;4912872;29;7058;-62
2022/07/30 04:42:30;;;;;;;;;;;;;;;28.61;35.89;94521.00;4894450;29;7254;-62
2022/07/30 04:44:57;;;;;;;;;;;;;;;28.59;36.11;94516.00;4888206;29;9672;-62
2022/07/30 04:47:34;;;;;;;;;;;;;;;28.59;36.21;94524.28;4903904;29;9238;-62
2022/07/30 04:50:15;;;;;;;;;;;;;;;28.58;36.15;94517.25;4897770;29;9963;-62
2022/07/30 04:53:14;;;;;;;;;;;;;;;28.60;36.33;94523.00;4890015;29;7342;-62
2022/07/30 04:55:45;;;;;;;;;;;;;;;28.60;36.23;94531.31;4894922;29;10186;-62
2022/07/30 04:58:22;;;;;;;;;;;;;;;28.60;36.32;94533.34;4912549;29;9340;-62
2022/07/30 05:00:54;;;;;;;;;;;;;;;28.60;35.65;94530.59;4893068;29;7662;-62
2022/07/30 05:03:22;;;;;;;;;;;;;;;28.58;36.25;94525.56;4894603;29;7369;-62
2022/07/30 05:05:53;;;;;;;;;;;;;;;28.58;35.80;94533.84;4893009;29;7046;-62
2022/07/30 05:08:19;;;;;;;;;;;;;;;28.57;36.03;94535.16;4902871;29;9111;-62
2022/07/30 05:10:45;;;;;;;;;;;;;;;28.56;35.89;94541.19;4884196;29;9203;-62
2022/07/30 05:13:13;;;;;;;;;;;;;;;28.59;36.15;94542.91;4925630;28;9098;-62
2022/07/30 05:15:40;;;;;;;;;;;;;;;28.58;36.14;94544.94;4984889;28;9090;-62
2022/07/30 05:18:06;;;;;;;;;;;;;;;28.58;35.83;94544.19;4981685;28;7294;-62
2022/07/30 05:20:39;;;;;;;;;;;;;;;28.58;36.07;94538.66;4989826;28;7258;-62
2022/07/30 05:23:07;;;;;;;;;;;;;;;28.57;36.28;94548.19;5006206;28;7047;-62
2022/07/30 05:25:33;;;;;;;;;;;;;;;28.56;36.23;94549.50;5005141;28;7272;-62
2022/07/30 05:27:59;;;;;;;;;;;;;;;28.56;36.16;94550.22;4988981;28;7543;-63
2022/07/30 05:30:25;;;;;;;;;;;;;;;28.54;36.09;94544.47;5004581;28;7146;-62
2022/07/30 05:32:53;;;;;;;;;;;;;;;28.55;35.97;94545.22;5007437;28;7229;-62
2022/07/30 05:35:51;;;;;;;;;;;;;;;28.55;36.21;94545.97;5008322;28;9438;-62
2022/07/30 05:38:18;;;;;;;;;;;;;;;28.55;36.50;94545.97;5012523;28;8809;-62
2022/07/30 05:40:46;;;;;;;;;;;;;;;28.54;36.20;94547.22;4993799;28;7240;-62
2022/07/30 05:43:25;;;;;;;;;;;;;;;28.55;36.55;94545.22;5011425;28;9147;-62
2022/07/30 05:45:52;;;;;;;;;;;;;;;28.56;36.16;94546.72;5010784;28;7247;-62
2022/07/30 05:48:19;;;;;;;;;;;;;;;28.54;36.60;94550.00;5011114;28;9219;-62
2022/07/30 05:50:56;;;;;;;;;;;;;;;28.53;36.25;94545.75;5012056;28;9548;-62
2022/07/30 05:53:22;;;;;;;;;;;;;;;28.55;35.88;94559.81;5011571;28;7230;-62
2022/07/30 05:55:48;;;;;;;;;;;;;;;28.53;36.35;94556.06;5010860;28;9051;-62
2022/07/30 05:58:34;;;;;;;;;;;;;;;28.52;36.08;94558.06;4994666;28;9210;-62
2022/07/30 06:01:00;;;;;;;;;;;;;;;28.53;36.02;94556.81;5026207;28;8939;-62
2022/07/30 06:03:26;;;;;;;;;;;;;;;28.50;36.30;94562.63;5010810;28;7395;-62
2022/07/30 06:05:54;;;;;;;;;;;;;;;28.51;36.51;94564.16;4993885;28;9057;-62
2022/07/30 06:08:27;;;;;;;;;;;;;;;28.52;36.65;94569.16;5011225;28;7050;-62
2022/07/30 06:11:04;;;;;;;;;;;;;;;28.53;36.13;94576.19;5009068;28;8764;-62
2022/07/30 06:13:31;;;;;;;;;;;;;;;28.53;36.15;94570.66;5009879;28;7317;-62
2022/07/30 06:15:58;;;;;;;;;;;;;;;28.52;36.03;94577.44;5010919;28;7214;-62
2022/07/30 06:18:35;;;;;;;;;;;;;;;28.52;36.23;94574.69;4995002;28;9407;-62
2022/07/30 06:21:33;;;;;;;;;;;;;;;28.53;36.40;94576.19;4993489;28;9378;-62
2022/07/30 06:24:31;;;;;;;;;;;;;;;28.54;36.51;94582.44;4953800;28;7228;-63
2022/07/30 06:27:10;;;;;;;;;;;;;;;28.52;36.36;94579.47;4953452;28;7637;-62
2022/07/30 06:29:48;;;;;;;;;;;;;;;28.53;36.87;94578.19;4953767;28;7970;-62
2022/07/30 06:32:48;;;;;;;;;;;;;;;28.52;36.32;94594.06;4953095;28;9189;-62
2022/07/30 06:35:30;;;;;;;;;;;;;;;28.53;36.42;94586.50;4971204;28;9588;-62
2022/07/30 06:37:56;;;;;;;;;;;;;;;28.51;36.36;94584.28;4954023;28;8998;-62
2022/07/30 06:40:32;;;;;;;;;;;;;;;28.51;36.76;94586.28;4970380;28;7416;-62
2022/07/30 06:42:58;;;;;;;;;;;;;;;28.51;36.52;94594.59;4969875;28;7555;-62
2022/07/30 06:45:24;;;;;;;;;;;;;;;28.51;36.68;94589.81;4954455;28;7239;-62
2022/07/30 06:48:13;;;;;;;;;;;;;;;28.51;36.69;94589.81;4968535;28;9009;-62
2022/07/30 06:51:17;;;;;;;;;;;;;;;28.50;36.98;94588.31;4951697;28;7290;-62
2022/07/30 06:54:15;;;;;;;;;;;;;;;28.50;36.57;94593.84;4882973;29;7326;-62
2022/07/30 06:56:45;;;;;;;;;;;;;;;28.50;36.47;94593.84;4854666;29;8804;-62
2022/07/30 06:59:21;;;;;;;;;;;;;;;28.50;36.62;94604.91;4875829;29;7311;-62
2022/07/30 07:01:52;;;;;;;;;;;;;;;28.50;36.70;94602.13;4927695;29;7251;-62
2022/07/30 07:04:19;;;;;;;;;;;;;;;28.51;36.68;94597.34;4926313;29;9910;-62
2022/07/30 07:06:59;;;;;;;;;;;;;;;28.50;36.97;94604.91;4905371;29;8791;-62
2022/07/30 07:09:26;;;;;;;;;;;;;;;28.51;36.85;94600.13;4931148;29;9071;-62
2022/07/30 07:12:04;;;;;;;;;;;;;;;28.52;37.09;94610.66;4897777;29;7297;-62
2022/07/30 07:14:32;;;;;;;;;;;;;;;28.53;36.55;94609.41;4914952;29;7241;-62
2022/07/30 07:16:58;;;;;;;;;;;;;;;28.52;37.04;94605.13;4915545;29;7234;-62
2022/07/30 07:20:09;;;;;;;;;;;;;;;28.50;37.19;94604.91;4930407;29;9375;-62
2022/07/30 07:22:53;;;;;;;;;;;;;;;28.50;37.30;94609.69;4926622;28;7521;-62
2022/07/30 07:25:20;;;;;;;;;;;;;;;28.51;37.08;94606.41;4928854;28;7216;-62
2022/07/30 07:27:47;;;;;;;;;;;;;;;28.51;37.65;94602.88;4969567;28;7103;-62
2022/07/30 07:30:22;;;;;;;;;;;;;;;28.48;37.62;94603.94;4981852;28;7174;-62
2022/07/30 07:32:51;;;;;;;;;;;;;;;28.47;37.65;94608.72;4997885;28;7228;-62
2022/07/30 07:35:19;;;;;;;;;;;;;;;28.47;37.43;94605.94;4999286;28;7236;-62
2022/07/30 07:37:49;;;;;;;;;;;;;;;28.47;37.82;94608.72;4994153;28;7236;-62
2022/07/30 07:40:46;;;;;;;;;;;;;;;28.48;37.19;94612.97;4999282;28;9309;-62
2022/07/30 07:43:21;;;;;;;;;;;;;;;28.47;37.73;94611.47;4995844;28;7034;-62
2022/07/30 07:45:50;;;;;;;;;;;;;;;28.46;38.28;94607.22;4970235;28;7022;-62
2022/07/30 07:48:17;;;;;;;;;;;;;;;28.49;38.05;94610.97;4970701;28;8747;-62
2022/07/30 07:50:43;;;;;;;;;;;;;;;28.49;37.77;94619.28;4971570;28;7423;-62
2022/07/30 07:53:11;;;;;;;;;;;;;;;28.48;37.52;94612.97;4996953;28;7013;-62
2022/07/30 07:55:46;;;;;;;;;;;;;;;28.47;37.92;94611.47;4996076;28;6993;-62
2022/07/30 07:58:14;;;;;;;;;;;;;;;28.47;37.97;94611.47;4979915;28;7113;-62
2022/07/30 08:00:43;;;;;;;;;;;;;;;28.47;37.62;94608.72;4950433;28;7028;-62
2022/07/30 08:03:09;;;;;;;;;;;;;;;28.48;37.77;94617.75;4950142;28;7131;-62
2022/07/30 08:05:35;;;;;;;;;;;;;;;28.46;38.14;94610.00;4981770;28;8022;-62
2022/07/30 08:08:01;;;;;;;;;;;;;;;28.47;37.59;94610.75;4950463;28;8759;-62
2022/07/30 08:10:27;;;;;;;;;;;;;;;28.46;37.33;94615.53;4980211;28;7252;-63
2022/07/30 08:12:56;;;;;;;;;;;;;;;28.46;37.69;94620.31;4964972;28;8005;-62
2022/07/30 08:15:26;;;;;;;;;;;;;;;28.46;37.67;94615.53;4969809;28;7058;-62
2022/07/30 08:17:55;;;;;;;;;;;;;;;28.46;37.57;94615.53;4955279;28;6919;-62
2022/07/30 08:20:27;;;;;;;;;;;;;;;28.45;37.84;94607.75;5020495;28;7217;-63
2022/07/30 08:22:53;;;;;;;;;;;;;;;28.45;37.74;94602.94;5025526;28;7260;-62
2022/07/30 08:25:22;;;;;;;;;;;;;;;28.46;37.83;94615.53;4991009;28;8135;-63
2022/07/30 08:27:48;;;;;;;;;;;;;;;28.44;37.95;94609.03;4989801;28;7268;-62
2022/07/30 08:30:17;;;;;;;;;;;;;;;28.46;37.82;94615.53;5007334;28;7192;-62
2022/07/30 08:32:45;;;;;;;;;;;;;;;28.46;37.66;94610.00;5008231;28;7221;-62
2022/07/30 08:35:41;;;;;;;;;;;;;;;28.47;38.33;94617.00;5006481;28;9125;-62
2022/07/30 08:38:08;;;;;;;;;;;;;;;28.46;37.91;94610.00;4946242;28;6993;-62
2022/07/30 08:40:36;;;;;;;;;;;;;;;28.47;37.33;94613.50;4943534;28;7275;-62
2022/07/30 08:43:19;;;;;;;;;;;;;;;28.46;38.04;94621.06;4946302;28;6936;-62
2022/07/30 08:45:56;;;;;;;;;;;;;;;28.45;37.82;94613.28;4928930;28;7369;-62
2022/07/30 08:48:34;;;;;;;;;;;;;;;28.47;37.86;94613.50;4925769;28;7047;-62
2022/07/30 08:51:17;;;;;;;;;;;;;;;28.46;38.34;94614.78;4943918;28;9109;-62
2022/07/30 08:53:45;;;;;;;;;;;;;;;28.46;37.93;94612.00;4931948;28;8730;-62
2022/07/30 08:56:23;;;;;;;;;;;;;;;28.46;38.01;94612.75;4944315;28;9324;-62
2022/07/30 08:59:03;;;;;;;;;;;;;;;28.46;38.08;94615.53;4946713;28;9137;-62
2022/07/30 09:01:33;;;;;;;;;;;;;;;28.47;38.00;94616.28;4933335;28;9165;-62
2022/07/30 09:03:59;;;;;;;;;;;;;;;28.48;38.25;94617.75;4931008;28;7269;-62
2022/07/30 09:06:25;;;;;;;;;;;;;;;28.48;37.73;94612.22;4925616;28;9504;-62
2022/07/30 09:09:14;;;;;;;;;;;;;;;28.47;38.37;94622.53;4960421;28;9095;-62
2022/07/30 09:11:48;;;;;;;;;;;;;;;28.50;37.67;94617.97;4945848;28;9089;-62
2022/07/30 09:14:27;;;;;;;;;;;;;;;28.47;37.99;94619.78;4984895;28;9081;-62
2022/07/30 09:17:01;;;;;;;;;;;;;;;28.49;38.06;94619.28;5027517;28;8697;-62
2022/07/30 09:19:31;;;;;;;;;;;;;;;28.48;37.82;94628.84;5027561;28;7293;-62
2022/07/30 09:22:02;;;;;;;;;;;;;;;28.48;38.23;94624.06;4993529;28;7330;-63
2022/07/30 09:24:59;;;;;;;;;;;;;;;28.50;38.14;94624.28;5012015;28;7158;-62
2022/07/30 09:27:43;;;;;;;;;;;;;;;28.48;37.88;94617.75;5028007;28;7088;-62
2022/07/30 09:30:10;;;;;;;;;;;;;;;28.48;38.20;94615.00;5011327;28;7062;-62
2022/07/30 09:32:57;;;;;;;;;;;;;;;28.50;37.68;94621.50;5012408;28;8977;-62
2022/07/30 09:35:42;;;;;;;;;;;;;;;28.51;37.94;94623.00;5011623;28;7254;-62
2022/07/30 09:38:09;;;;;;;;;;;;;;;28.53;38.02;94616.94;5010840;28;7270;-62
2022/07/30 09:40:50;;;;;;;;;;;;;;;28.54;37.56;94621.19;5007947;28;7239;-62
2022/07/30 09:44:11;;;;;;;;;;;;;;;28.55;38.08;94626.22;5012926;28;9044;-62
2022/07/30 09:46:46;;;;;;;;;;;;;;;28.56;37.87;94621.44;4932189;29;7387;-62
2022/07/30 09:49:20;;;;;;;;;;;;;;;28.55;37.81;94619.94;4931700;29;7238;-62
2022/07/30 09:52:28;;;;;;;;;;;;;;;28.56;37.92;94630.47;4929984;29;7629;-62
2022/07/30 09:54:54;;;;;;;;;;;;;;;28.57;38.35;94629.25;4929912;29;7086;-62
2022/07/30 09:57:20;;;;;;;;;;;;;;;28.57;38.25;94623.69;4912191;29;7057;-62
2022/07/30 09:59:46;;;;;;;;;;;;;;;28.56;38.00;94619.41;4909412;29;8785;-62
2022/07/30 10:02:12;;;;;;;;;;;;;;;28.59;38.00;94617.63;4911405;29;7273;-62
2022/07/30 10:04:44;;;;;;;;;;;;;;;28.60;37.58;94616.38;4926957;29;7212;-62
2022/07/30 10:07:20;;;;;;;;;;;;;;;28.61;37.58;94615.09;4928484;29;7212;-62
2022/07/30 10:09:47;;;;;;;;;;;;;;;28.61;37.81;94621.38;4926505;29;9204;-62
2022/07/30 10:12:16;;;;;;;;;;;;;;;28.62;38.00;94617.34;4927045;29;7167;-62
2022/07/30 10:14:48;;;;;;;;;;;;;;;28.61;37.88;94615.84;4926693;29;7267;-62
2022/07/30 10:17:57;;;;;;;;;;;;;;;28.64;38.16;94614.81;4929590;29;8984;-62
2022/07/30 10:20:31;;;;;;;;;;;;;;;28.64;38.05;94617.56;4962697;28;7258;-62
2022/07/30 10:23:18;;;;;;;;;;;;;;;28.68;37.99;94611.72;5011215;28;7057;-62
2022/07/30 10:25:49;;;;;;;;;;;;;;;28.70;38.34;94606.41;4993643;28;7215;-62
2022/07/30 10:28:43;;;;;;;;;;;;;;;28.71;37.63;94613.44;5011611;28;7288;-62
2022/07/30 10:31:27;;;;;;;;;;;;;;;28.70;38.48;94607.16;4968118;28;7350;-62
2022/07/30 10:34:01;;;;;;;;;;;;;;;28.72;38.01;94606.63;4949154;28;9101;-62
2022/07/30 10:36:29;;;;;;;;;;;;;;;28.70;38.17;94606.41;4967160;28;7229;-62
2022/07/30 10:39:04;;;;;;;;;;;;;;;28.71;37.95;94603.09;4952209;28;7169;-61
2022/07/30 10:48:22;;;;;;;;;;;;;;;28.77;38.20;94595.47;4974164;28;7106;-62
2022/07/30 10:50:55;;;;;;;;;;;;;;;28.77;38.29;94601.00;4972917;28;7093;-62
2022/07/30 10:53:55;;;;;;;;;;;;;;;28.80;38.02;94604.72;4953765;28;9139;-62
2022/07/30 10:56:31;;;;;;;;;;;;;;;28.80;38.46;94602.72;4971919;28;7026;-62
2022/07/30 10:59:06;;;;;;;;;;;;;;;28.78;38.01;94604.50;4957112;28;8961;-62
2022/07/30 11:01:47;;;;;;;;;;;;;;;28.78;38.10;94602.50;4971433;28;9651;-62
2022/07/30 11:04:19;;;;;;;;;;;;;;;28.76;38.45;94612.59;4973637;28;9260;-62
2022/07/30 11:06:47;;;;;;;;;;;;;;;28.79;38.70;94615.06;4973685;28;7892;-62
2022/07/30 11:10:08;;;;;;;;;;;;;;;28.82;38.44;94607.72;5007940;28;7367;-62
2022/07/30 11:12:40;;;;;;;;;;;;;;;28.80;38.12;94605.47;5031050;28;7076;-62
2022/07/30 11:15:11;;;;;;;;;;;;;;;28.82;38.47;94608.47;4996700;28;7203;-62
2022/07/30 11:18:07;;;;;;;;;;;;;;;28.82;38.63;94597.41;4996663;28;7963;-62
2022/07/30 11:20:38;;;;;;;;;;;;;;;28.81;38.39;94601.44;5028754;28;9465;-62
2022/07/30 11:23:28;;;;;;;;;;;;;;;28.82;38.44;94613.25;4996511;28;8009;-62
2022/07/30 11:25:56;;;;;;;;;;;;;;;28.82;38.37;94611.22;5009727;28;7827;-62
2022/07/30 11:28:39;;;;;;;;;;;;;;;28.84;38.50;94610.72;5008574;28;9075;-62
2022/07/30 11:31:28;;;;;;;;;;;;;;;28.84;38.08;94599.66;5008338;28;8672;-62
2022/07/30 11:34:20;;;;;;;;;;;;;;;28.84;38.07;94603.16;5006916;28;7436;-62
2022/07/30 11:37:07;;;;;;;;;;;;;;;28.87;38.57;94609.66;5024086;28;7215;-62
2022/07/30 11:40:00;;;;;;;;;;;;;;;28.88;37.91;94611.16;4997478;28;7302;-63
2022/07/30 11:43:10;;;;;;;;;;;;;;;28.87;37.86;94599.34;4996386;28;7351;-62
2022/07/30 11:45:38;;;;;;;;;;;;;;;28.87;38.44;94607.63;5013716;28;7226;-62
2022/07/30 11:48:53;;;;;;;;;;;;;;;28.89;38.74;94601.56;5029458;28;9106;-62
2022/07/30 11:51:20;;;;;;;;;;;;;;;28.88;38.39;94600.09;4949524;28;9036;-62
2022/07/30 11:54:22;;;;;;;;;;;;;;;28.91;38.25;94604.56;4952966;28;7281;-62
2022/07/30 11:57:15;;;;;;;;;;;;;;;28.91;38.74;94594.22;4934680;28;7144;-62
2022/07/30 11:59:56;;;;;;;;;;;;;;;28.92;38.39;94586.69;4936777;28;7235;-62
2022/07/30 12:02:26;;;;;;;;;;;;;;;28.91;38.29;94594.22;4935180;28;8782;-62
2022/07/30 12:04:54;;;;;;;;;;;;;;;28.91;38.54;94594.22;4935735;28;7880;-61
2022/07/30 12:07:55;;;;;;;;;;;;;;;28.93;38.63;94588.91;4951426;28;7221;-62
2022/07/30 12:10:38;;;;;;;;;;;;;;;28.93;38.17;94586.13;4926544;28;7348;-62
2022/07/30 12:13:42;;;;;;;;;;;;;;;28.91;39.05;94588.69;4942093;28;9124;-62
2022/07/30 12:16:17;;;;;;;;;;;;;;;28.89;38.80;94588.47;4927879;28;9724;-62
2022/07/30 12:18:53;;;;;;;;;;;;;;;28.89;38.63;94584.94;4924537;28;9093;-62
2022/07/30 12:21:31;;;;;;;;;;;;;;;28.90;39.15;94587.22;4926182;28;9329;-62
2022/07/30 12:24:00;;;;;;;;;;;;;;;28.90;39.25;94576.13;4925820;28;7223;-62
2022/07/30 12:26:29;;;;;;;;;;;;;;;28.91;39.08;94582.41;4923199;28;9141;-62
2022/07/30 12:28:59;;;;;;;;;;;;;;;28.89;38.82;94580.16;4955905;28;9372;-62
2022/07/30 12:31:26;;;;;;;;;;;;;;;28.89;39.01;94584.94;4971676;28;9327;-62
2022/07/30 12:33:55;;;;;;;;;;;;;;;28.91;38.82;94583.16;4972730;28;9395;-62
2022/07/30 12:36:39;;;;;;;;;;;;;;;28.90;38.98;94580.91;4955959;28;8872;-62
2022/07/30 12:39:18;;;;;;;;;;;;;;;28.90;38.86;94584.44;4939783;28;7041;-62
2022/07/30 12:41:50;;;;;;;;;;;;;;;28.91;38.64;94576.88;4953472;28;6993;-62
2022/07/30 12:44:43;;;;;;;;;;;;;;;28.92;38.50;94581.91;4939541;28;9107;-62
2022/07/30 12:47:28;;;;;;;;;;;;;;;28.94;38.57;94576.56;4993411;28;9058;-62
2022/07/30 12:50:16;;;;;;;;;;;;;;;28.96;38.85;94581.56;4997205;28;7025;-62
2022/07/30 12:52:51;;;;;;;;;;;;;;;28.96;38.93;94576.78;5013560;28;7196;-62
2022/07/30 12:55:32;;;;;;;;;;;;;;;28.98;38.73;94579.78;5010247;28;8767;-62
2022/07/30 12:58:07;;;;;;;;;;;;;;;28.99;38.23;94567.41;5028378;28;8912;-62
2022/07/30 13:00:42;;;;;;;;;;;;;;;28.99;39.08;94577.75;5011560;28;6988;-62
2022/07/30 13:03:21;;;;;;;;;;;;;;;29.00;38.86;94568.91;5012070;28;7278;-62
2022/07/30 13:05:50;;;;;;;;;;;;;;;29.02;38.25;94563.59;5025958;28;7241;-62
2022/07/30 13:08:19;;;;;;;;;;;;;;;29.03;38.70;94561.56;4993438;28;7099;-62
2022/07/30 13:10:55;;;;;;;;;;;;;;;29.04;38.62;94565.81;4994834;28;7788;-62
2022/07/30 13:13:35;;;;;;;;;;;;;;;29.07;39.08;94568.28;4995394;28;9219;-62
2022/07/30 13:16:33;;;;;;;;;;;;;;;29.09;38.31;94562.97;4995367;28;7076;-62
2022/07/30 13:19:00;;;;;;;;;;;;;;;29.11;38.69;94567.97;5010698;28;7036;-62
2022/07/30 13:21:32;;;;;;;;;;;;;;;29.12;38.66;94552.84;4995112;28;9413;-62
2022/07/30 13:24:13;;;;;;;;;;;;;;;29.12;38.80;94554.88;5011140;28;8760;-62
2022/07/30 13:26:48;;;;;;;;;;;;;;;29.13;39.07;94553.59;5011054;28;9414;-62
2022/07/30 13:29:33;;;;;;;;;;;;;;;29.11;38.98;94551.34;5011371;28;7259;-62
2022/07/30 13:32:18;;;;;;;;;;;;;;;29.12;38.51;94557.66;5008956;28;7124;-62
2022/07/30 13:34:46;;;;;;;;;;;;;;;29.10;38.91;94549.88;5011727;28;7424;-62
2022/07/30 13:37:14;;;;;;;;;;;;;;;29.10;38.39;94556.13;4994314;28;6983;-62
2022/07/30 13:39:43;;;;;;;;;;;;;;;29.12;38.32;94563.94;5012284;28;9033;-62
2022/07/30 13:42:31;;;;;;;;;;;;;;;29.12;38.88;94555.63;4992741;28;7333;-62
2022/07/30 13:45:22;;;;;;;;;;;;;;;29.15;38.65;94553.78;5012664;28;8011;-62
2022/07/30 13:47:49;;;;;;;;;;;;;;;29.15;38.58;94551.03;5010958;28;9586;-62
2022/07/30 13:50:22;;;;;;;;;;;;;;;29.13;38.67;94564.66;5027919;28;7265;-62
2022/07/30 13:53:21;;;;;;;;;;;;;;;29.12;38.69;94555.63;5025987;28;7197;-62
2022/07/30 13:56:04;;;;;;;;;;;;;;;29.12;38.30;94555.63;4926072;28;7143;-62